sensor_id;sensor_type;location;lat;lon;timestamp;pressure;altitude;pressure_sealevel;temperature;humidity
67987;BME280;54767;53.800;15.956;2023-08-31T00:01:38;99372.10;;;15.84;81.19
67987;BME280;54767;53.800;15.956;2023-08-31T00:04:07;99367.73;;;15.83;81.25
67987;BME280;54767;53.800;15.956;2023-08-31T00:06:43;99366.48;;;15.83;81.14
67987;BME280;54767;53.800;15.956;2023-08-31T00:09:15;99367.02;;;15.83;81.19
67987;BME280;54767;53.800;15.956;2023-08-31T00:11:44;99368.52;;;15.85;81.20
67987;BME280;54767;53.800;15.956;2023-08-31T00:14:20;99365.86;;;15.85;81.24
67987;BME280;54767;53.800;15.956;2023-08-31T00:16:53;99360.04;;;15.86;81.13
67987;BME280;54767;53.800;15.956;2023-08-31T00:19:45;99362.91;;;15.84;81.11
67987;BME280;54767;53.800;15.956;2023-08-31T00:22:18;99364.90;;;15.83;81.06
67987;BME280;54767;53.800;15.956;2023-08-31T00:24:47;99360.33;;;15.82;80.99
67987;BME280;54767;53.800;15.956;2023-08-31T00:27:16;99356.10;;;15.82;80.96
67987;BME280;54767;53.800;15.956;2023-08-31T00:29:45;99357.33;;;15.82;80.87
67987;BME280;54767;53.800;15.956;2023-08-31T00:32:17;99355.05;;;15.82;80.79
67987;BME280;54767;53.800;15.956;2023-08-31T00:34:46;99349.38;;;15.82;80.95
67987;BME280;54767;53.800;15.956;2023-08-31T00:37:15;99348.20;;;15.81;80.83
67987;BME280;54767;53.800;15.956;2023-08-31T00:39:44;99344.03;;;15.79;80.72
67987;BME280;54767;53.800;15.956;2023-08-31T00:42:13;99343.04;;;15.77;80.73
67987;BME280;54767;53.800;15.956;2023-08-31T00:44:45;99338.64;;;15.76;80.70
67987;BME280;54767;53.800;15.956;2023-08-31T00:47:31;99337.09;;;15.75;80.68
67987;BME280;54767;53.800;15.956;2023-08-31T00:50:01;99342.08;;;15.74;80.71
67987;BME280;54767;53.800;15.956;2023-08-31T00:52:31;99340.92;;;15.72;80.74
67987;BME280;54767;53.800;15.956;2023-08-31T00:55:00;99339.97;;;15.68;80.77
67987;BME280;54767;53.800;15.956;2023-08-31T00:57:31;99339.65;;;15.67;80.66
67987;BME280;54767;53.800;15.956;2023-08-31T01:00:00;99334.75;;;15.65;80.71
67987;BME280;54767;53.800;15.956;2023-08-31T01:02:54;99338.99;;;15.65;80.77
67987;BME280;54767;53.800;15.956;2023-08-31T01:08:33;99336.08;;;15.62;80.73
67987;BME280;54767;53.800;15.956;2023-08-31T01:13:42;99329.34;;;15.58;80.68
67987;BME280;54767;53.800;15.956;2023-08-31T01:16:13;99329.48;;;15.59;80.69
67987;BME280;54767;53.800;15.956;2023-08-31T01:18:43;99322.60;;;15.59;80.77
67987;BME280;54767;53.800;15.956;2023-08-31T01:21:34;99319.11;;;15.58;80.80
67987;BME280;54767;53.800;15.956;2023-08-31T01:24:05;99315.52;;;15.54;80.73
67987;BME280;54767;53.800;15.956;2023-08-31T01:26:35;99316.88;;;15.51;80.74
67987;BME280;54767;53.800;15.956;2023-08-31T01:29:03;99317.83;;;15.49;80.60
67987;BME280;54767;53.800;15.956;2023-08-31T01:31:31;99315.20;;;15.48;80.75
67987;BME280;54767;53.800;15.956;2023-08-31T01:34:00;99315.72;;;15.49;80.79
67987;BME280;54767;53.800;15.956;2023-08-31T01:36:33;99312.92;;;15.48;80.75
67987;BME280;54767;53.800;15.956;2023-08-31T01:39:24;99306.79;;;15.47;80.82
67987;BME280;54767;53.800;15.956;2023-08-31T01:41:57;99308.09;;;15.45;80.81
67987;BME280;54767;53.800;15.956;2023-08-31T01:44:29;99309.68;;;15.45;80.74
67987;BME280;54767;53.800;15.956;2023-08-31T01:47:03;99309.70;;;15.44;80.81
67987;BME280;54767;53.800;15.956;2023-08-31T01:49:37;99310.92;;;15.44;80.94
67987;BME280;54767;53.800;15.956;2023-08-31T01:52:06;99311.85;;;15.43;80.91
67987;BME280;54767;53.800;15.956;2023-08-31T01:54:35;99311.17;;;15.42;80.93
67987;BME280;54767;53.800;15.956;2023-08-31T01:57:05;99312.27;;;15.41;80.99
67987;BME280;54767;53.800;15.956;2023-08-31T01:59:34;99311.36;;;15.42;81.00
67987;BME280;54767;53.800;15.956;2023-08-31T02:02:03;99303.42;;;15.42;81.06
67987;BME280;54767;53.800;15.956;2023-08-31T02:04:32;99311.00;;;15.42;81.07
67987;BME280;54767;53.800;15.956;2023-08-31T02:07:00;99307.29;;;15.42;81.13
67987;BME280;54767;53.800;15.956;2023-08-31T02:09:29;99306.60;;;15.42;81.07
67987;BME280;54767;53.800;15.956;2023-08-31T02:11:57;99307.52;;;15.41;81.14
67987;BME280;54767;53.800;15.956;2023-08-31T02:14:25;99304.55;;;15.40;81.19
67987;BME280;54767;53.800;15.956;2023-08-31T02:16:53;99302.63;;;15.39;81.12
67987;BME280;54767;53.800;15.956;2023-08-31T02:19:21;99299.64;;;15.40;80.98
67987;BME280;54767;53.800;15.956;2023-08-31T02:21:49;99298.02;;;15.40;80.99
67987;BME280;54767;53.800;15.956;2023-08-31T02:24:17;99297.09;;;15.41;80.83
67987;BME280;54767;53.800;15.956;2023-08-31T02:26:46;99292.52;;;15.41;80.90
67987;BME280;54767;53.800;15.956;2023-08-31T02:29:14;99293.07;;;15.41;80.87
67987;BME280;54767;53.800;15.956;2023-08-31T02:31:42;99290.80;;;15.40;80.96
67987;BME280;54767;53.800;15.956;2023-08-31T02:34:10;99292.06;;;15.39;81.04
67987;BME280;54767;53.800;15.956;2023-08-31T02:36:38;99287.13;;;15.38;81.07
67987;BME280;54767;53.800;15.956;2023-08-31T02:39:07;99284.63;;;15.40;81.09
67987;BME280;54767;53.800;15.956;2023-08-31T02:41:35;99283.02;;;15.41;81.01
67987;BME280;54767;53.800;15.956;2023-08-31T02:44:04;99282.14;;;15.40;81.12
67987;BME280;54767;53.800;15.956;2023-08-31T02:46:32;99281.67;;;15.39;81.10
67987;BME280;54767;53.800;15.956;2023-08-31T02:49:00;99281.36;;;15.37;81.16
67987;BME280;54767;53.800;15.956;2023-08-31T02:51:28;99285.05;;;15.37;81.05
67987;BME280;54767;53.800;15.956;2023-08-31T02:53:57;99279.23;;;15.38;81.17
67987;BME280;54767;53.800;15.956;2023-08-31T02:56:25;99280.42;;;15.39;81.23
67987;BME280;54767;53.800;15.956;2023-08-31T02:58:53;99281.43;;;15.41;81.15
67987;BME280;54767;53.800;15.956;2023-08-31T03:01:22;99283.19;;;15.41;81.16
67987;BME280;54767;53.800;15.956;2023-08-31T03:03:51;99282.56;;;15.38;81.16
67987;BME280;54767;53.800;15.956;2023-08-31T03:06:19;99279.63;;;15.36;81.18
67987;BME280;54767;53.800;15.956;2023-08-31T03:08:47;99282.09;;;15.36;81.17
67987;BME280;54767;53.800;15.956;2023-08-31T03:11:16;99280.50;;;15.37;81.30
67987;BME280;54767;53.800;15.956;2023-08-31T03:13:44;99283.25;;;15.39;81.17
67987;BME280;54767;53.800;15.956;2023-08-31T03:16:14;99282.16;;;15.40;81.27
67987;BME280;54767;53.800;15.956;2023-08-31T03:18:42;99281.96;;;15.41;81.28
67987;BME280;54767;53.800;15.956;2023-08-31T03:21:10;99281.25;;;15.41;81.23
67987;BME280;54767;53.800;15.956;2023-08-31T03:23:38;99286.11;;;15.37;81.26
67987;BME280;54767;53.800;15.956;2023-08-31T03:26:08;99284.17;;;15.37;81.14
67987;BME280;54767;53.800;15.956;2023-08-31T03:28:36;99281.05;;;15.36;80.65
67987;BME280;54767;53.800;15.956;2023-08-31T03:31:06;99278.48;;;15.33;80.67
67987;BME280;54767;53.800;15.956;2023-08-31T03:33:34;99283.67;;;15.31;80.89
67987;BME280;54767;53.800;15.956;2023-08-31T03:36:03;99285.34;;;15.29;81.11
67987;BME280;54767;53.800;15.956;2023-08-31T03:38:32;99285.38;;;15.28;81.12
67987;BME280;54767;53.800;15.956;2023-08-31T03:41:06;99283.98;;;15.27;81.33
67987;BME280;54767;53.800;15.956;2023-08-31T03:43:34;99281.96;;;15.29;81.30
67987;BME280;54767;53.800;15.956;2023-08-31T03:46:02;99283.11;;;15.32;81.32
67987;BME280;54767;53.800;15.956;2023-08-31T03:48:31;99281.13;;;15.33;81.38
67987;BME280;54767;53.800;15.956;2023-08-31T03:50:59;99280.21;;;15.34;81.40
67987;BME280;54767;53.800;15.956;2023-08-31T03:53:27;99280.92;;;15.34;81.40
67987;BME280;54767;53.800;15.956;2023-08-31T03:55:56;99281.30;;;15.34;81.34
67987;BME280;54767;53.800;15.956;2023-08-31T03:59:31;99285.15;;;15.34;81.27
67987;BME280;54767;53.800;15.956;2023-08-31T04:02:01;99283.60;;;15.33;81.23
67987;BME280;54767;53.800;15.956;2023-08-31T04:04:31;99282.58;;;15.32;81.37
67987;BME280;54767;53.800;15.956;2023-08-31T04:07:00;99281.10;;;15.29;81.14
67987;BME280;54767;53.800;15.956;2023-08-31T04:09:29;99280.34;;;15.26;81.24
67987;BME280;54767;53.800;15.956;2023-08-31T04:11:58;99280.89;;;15.24;81.42
67987;BME280;54767;53.800;15.956;2023-08-31T04:14:46;99280.19;;;15.25;81.47
67987;BME280;54767;53.800;15.956;2023-08-31T04:17:35;99278.95;;;15.25;81.32
67987;BME280;54767;53.800;15.956;2023-08-31T04:20:03;99276.25;;;15.26;81.41
67987;BME280;54767;53.800;15.956;2023-08-31T04:22:33;99281.16;;;15.27;81.39
67987;BME280;54767;53.800;15.956;2023-08-31T04:25:02;99282.94;;;15.26;81.53
67987;BME280;54767;53.800;15.956;2023-08-31T04:27:31;99282.05;;;15.27;81.63
67987;BME280;54767;53.800;15.956;2023-08-31T04:30:02;99292.11;;;15.26;81.53
67987;BME280;54767;53.800;15.956;2023-08-31T04:32:31;99293.31;;;15.27;81.56
67987;BME280;54767;53.800;15.956;2023-08-31T04:34:59;99297.50;;;15.29;81.53
67987;BME280;54767;53.800;15.956;2023-08-31T04:37:27;99294.13;;;15.29;81.36
67987;BME280;54767;53.800;15.956;2023-08-31T04:39:55;99296.73;;;15.31;81.57
67987;BME280;54767;53.800;15.956;2023-08-31T04:42:23;99297.07;;;15.31;81.39
67987;BME280;54767;53.800;15.956;2023-08-31T04:44:52;99296.23;;;15.30;81.56
67987;BME280;54767;53.800;15.956;2023-08-31T04:47:20;99296.79;;;15.29;81.53
67987;BME280;54767;53.800;15.956;2023-08-31T04:49:48;99295.56;;;15.29;81.56
67987;BME280;54767;53.800;15.956;2023-08-31T04:52:16;99295.35;;;15.30;81.52
67987;BME280;54767;53.800;15.956;2023-08-31T04:54:45;99300.98;;;15.30;81.54
67987;BME280;54767;53.800;15.956;2023-08-31T04:57:13;99300.37;;;15.32;81.66
67987;BME280;54767;53.800;15.956;2023-08-31T04:59:41;99304.61;;;15.33;81.61
67987;BME280;54767;53.800;15.956;2023-08-31T05:02:09;99303.36;;;15.33;81.70
67987;BME280;54767;53.800;15.956;2023-08-31T05:04:37;99304.59;;;15.33;81.80
67987;BME280;54767;53.800;15.956;2023-08-31T05:07:05;99306.00;;;15.33;81.70
67987;BME280;54767;53.800;15.956;2023-08-31T05:09:34;99303.66;;;15.34;81.59
67987;BME280;54767;53.800;15.956;2023-08-31T05:12:03;99305.73;;;15.36;81.65
67987;BME280;54767;53.800;15.956;2023-08-31T05:14:31;99306.22;;;15.37;81.67
67987;BME280;54767;53.800;15.956;2023-08-31T05:17:00;99309.89;;;15.38;81.37
67987;BME280;54767;53.800;15.956;2023-08-31T05:19:28;99306.24;;;15.36;81.54
67987;BME280;54767;53.800;15.956;2023-08-31T05:21:57;99303.44;;;15.36;81.44
67987;BME280;54767;53.800;15.956;2023-08-31T05:24:25;99298.52;;;15.35;81.29
67987;BME280;54767;53.800;15.956;2023-08-31T05:26:53;99298.41;;;15.34;81.15
67987;BME280;54767;53.800;15.956;2023-08-31T05:29:21;99298.15;;;15.35;81.44
67987;BME280;54767;53.800;15.956;2023-08-31T05:31:51;99303.38;;;15.37;81.67
67987;BME280;54767;53.800;15.956;2023-08-31T05:34:21;99308.23;;;15.41;81.79
67987;BME280;54767;53.800;15.956;2023-08-31T05:36:53;99306.94;;;15.42;81.78
67987;BME280;54767;53.800;15.956;2023-08-31T05:39:21;99308.27;;;15.45;81.88
67987;BME280;54767;53.800;15.956;2023-08-31T05:41:49;99308.19;;;15.47;81.86
67987;BME280;54767;53.800;15.956;2023-08-31T05:44:17;99308.84;;;15.49;81.82
67987;BME280;54767;53.800;15.956;2023-08-31T05:46:45;99313.52;;;15.51;81.86
67987;BME280;54767;53.800;15.956;2023-08-31T05:49:13;99311.52;;;15.53;81.82
67987;BME280;54767;53.800;15.956;2023-08-31T05:51:41;99310.10;;;15.53;81.93
67987;BME280;54767;53.800;15.956;2023-08-31T05:54:10;99316.43;;;15.53;81.93
67987;BME280;54767;53.800;15.956;2023-08-31T05:56:41;99317.29;;;15.54;81.88
67987;BME280;54767;53.800;15.956;2023-08-31T05:59:09;99317.70;;;15.58;81.85
67987;BME280;54767;53.800;15.956;2023-08-31T06:01:37;99317.56;;;15.62;81.84
67987;BME280;54767;53.800;15.956;2023-08-31T06:04:05;99315.19;;;15.65;81.80
67987;BME280;54767;53.800;15.956;2023-08-31T06:06:33;99310.39;;;15.66;81.80
67987;BME280;54767;53.800;15.956;2023-08-31T06:09:02;99310.34;;;15.67;81.85
67987;BME280;54767;53.800;15.956;2023-08-31T06:11:30;99309.47;;;15.68;81.84
67987;BME280;54767;53.800;15.956;2023-08-31T06:13:58;99312.02;;;15.70;81.82
67987;BME280;54767;53.800;15.956;2023-08-31T06:16:27;99307.15;;;15.74;81.83
67987;BME280;54767;53.800;15.956;2023-08-31T06:18:55;99308.80;;;15.77;81.72
67987;BME280;54767;53.800;15.956;2023-08-31T06:21:23;99319.11;;;15.80;81.69
67987;BME280;54767;53.800;15.956;2023-08-31T06:23:51;99314.65;;;15.81;81.66
67987;BME280;54767;53.800;15.956;2023-08-31T06:26:20;99312.34;;;15.83;81.72
67987;BME280;54767;53.800;15.956;2023-08-31T06:28:48;99314.39;;;15.84;81.79
67987;BME280;54767;53.800;15.956;2023-08-31T06:31:16;99315.56;;;15.86;81.65
67987;BME280;54767;53.800;15.956;2023-08-31T06:33:44;99312.27;;;15.89;81.96
67987;BME280;54767;53.800;15.956;2023-08-31T06:36:12;99314.95;;;15.93;82.07
67987;BME280;54767;53.800;15.956;2023-08-31T06:38:41;99316.70;;;15.99;82.34
67987;BME280;54767;53.800;15.956;2023-08-31T06:41:09;99313.31;;;16.05;82.56
67987;BME280;54767;53.800;15.956;2023-08-31T06:43:37;99309.57;;;16.07;81.95
67987;BME280;54767;53.800;15.956;2023-08-31T06:46:06;99314.98;;;16.08;81.53
67987;BME280;54767;53.800;15.956;2023-08-31T06:48:51;99308.89;;;16.06;81.26
67987;BME280;54767;53.800;15.956;2023-08-31T06:51:19;99320.64;;;16.07;81.24
67987;BME280;54767;53.800;15.956;2023-08-31T06:53:51;99321.36;;;16.07;80.95
67987;BME280;54767;53.800;15.956;2023-08-31T06:56:20;99323.17;;;16.06;80.83
67987;BME280;54767;53.800;15.956;2023-08-31T06:58:48;99327.20;;;16.07;80.79
67987;BME280;54767;53.800;15.956;2023-08-31T07:01:16;99324.36;;;16.07;80.68
67987;BME280;54767;53.800;15.956;2023-08-31T07:03:44;99329.64;;;16.07;80.38
67987;BME280;54767;53.800;15.956;2023-08-31T07:06:14;99333.57;;;16.07;80.40
67987;BME280;54767;53.800;15.956;2023-08-31T07:08:42;99324.18;;;16.07;80.62
67987;BME280;54767;53.800;15.956;2023-08-31T07:11:14;99330.20;;;16.07;80.41
67987;BME280;54767;53.800;15.956;2023-08-31T07:13:42;99336.17;;;16.08;80.41
67987;BME280;54767;53.800;15.956;2023-08-31T07:16:11;99342.44;;;16.10;80.46
67987;BME280;54767;53.800;15.956;2023-08-31T07:18:39;99342.54;;;16.12;80.33
67987;BME280;54767;53.800;15.956;2023-08-31T07:21:07;99348.90;;;16.12;80.19
67987;BME280;54767;53.800;15.956;2023-08-31T07:23:38;99353.88;;;16.11;80.23
67987;BME280;54767;53.800;15.956;2023-08-31T07:26:07;99355.52;;;16.09;80.21
67987;BME280;54767;53.800;15.956;2023-08-31T07:28:35;99359.35;;;16.06;80.10
67987;BME280;54767;53.800;15.956;2023-08-31T07:31:04;99363.78;;;16.06;80.09
67987;BME280;54767;53.800;15.956;2023-08-31T07:33:34;99365.52;;;16.06;80.18
67987;BME280;54767;53.800;15.956;2023-08-31T07:36:04;99369.67;;;16.09;80.19
67987;BME280;54767;53.800;15.956;2023-08-31T07:38:56;99372.45;;;16.10;80.27
67987;BME280;54767;53.800;15.956;2023-08-31T07:41:52;99371.50;;;16.12;80.33
67987;BME280;54767;53.800;15.956;2023-08-31T07:44:23;99374.67;;;16.12;80.18
67987;BME280;54767;53.800;15.956;2023-08-31T07:47:01;99377.13;;;16.12;80.04
67987;BME280;54767;53.800;15.956;2023-08-31T07:49:33;99381.48;;;16.14;79.87
67987;BME280;54767;53.800;15.956;2023-08-31T07:52:02;99378.23;;;16.11;79.78
67987;BME280;54767;53.800;15.956;2023-08-31T07:54:31;99386.69;;;16.16;79.87
67987;BME280;54767;53.800;15.956;2023-08-31T07:57:05;99392.02;;;16.16;80.01
67987;BME280;54767;53.800;15.956;2023-08-31T07:59:34;99393.45;;;16.15;79.91
67987;BME280;54767;53.800;15.956;2023-08-31T08:02:02;99395.70;;;16.16;79.87
67987;BME280;54767;53.800;15.956;2023-08-31T08:04:31;99402.74;;;16.17;79.88
67987;BME280;54767;53.800;15.956;2023-08-31T08:10:20;99416.14;;;16.13;79.68
67987;BME280;54767;53.800;15.956;2023-08-31T08:12:50;99420.09;;;16.10;79.88
67987;BME280;54767;53.800;15.956;2023-08-31T08:18:54;99420.13;;;16.04;79.80
67987;BME280;54767;53.800;15.956;2023-08-31T08:21:23;99415.73;;;16.03;79.90
67987;BME280;54767;53.800;15.956;2023-08-31T08:23:51;99417.63;;;16.05;80.02
67987;BME280;54767;53.800;15.956;2023-08-31T08:26:21;99418.85;;;16.05;80.00
67987;BME280;54767;53.800;15.956;2023-08-31T08:28:51;99422.92;;;16.05;79.98
67987;BME280;54767;53.800;15.956;2023-08-31T08:31:19;99420.81;;;16.05;79.93
67987;BME280;54767;53.800;15.956;2023-08-31T08:33:50;99418.86;;;16.05;79.98
67987;BME280;54767;53.800;15.956;2023-08-31T08:36:18;99417.63;;;16.05;79.96
67987;BME280;54767;53.800;15.956;2023-08-31T08:38:46;99421.88;;;16.04;79.97
67987;BME280;54767;53.800;15.956;2023-08-31T08:41:17;99424.05;;;16.02;80.14
67987;BME280;54767;53.800;15.956;2023-08-31T08:44:02;99422.50;;;16.01;80.12
67987;BME280;54767;53.800;15.956;2023-08-31T08:46:33;99418.59;;;16.02;80.01
67987;BME280;54767;53.800;15.956;2023-08-31T08:49:02;99421.89;;;16.04;80.12
67987;BME280;54767;53.800;15.956;2023-08-31T08:51:31;99422.73;;;16.05;79.92
67987;BME280;54767;53.800;15.956;2023-08-31T08:54:00;99426.10;;;16.05;80.05
67987;BME280;54767;53.800;15.956;2023-08-31T08:56:29;99428.26;;;16.04;80.13
67987;BME280;54767;53.800;15.956;2023-08-31T08:58:57;99423.53;;;16.02;80.09
67987;BME280;54767;53.800;15.956;2023-08-31T09:01:26;99427.11;;;16.01;80.14
67987;BME280;54767;53.800;15.956;2023-08-31T09:03:57;99425.55;;;16.00;80.15
67987;BME280;54767;53.800;15.956;2023-08-31T09:06:27;99425.04;;;16.00;80.06
67987;BME280;54767;53.800;15.956;2023-08-31T09:08:56;99424.73;;;15.98;80.01
67987;BME280;54767;53.800;15.956;2023-08-31T09:11:25;99428.59;;;15.93;80.23
67987;BME280;54767;53.800;15.956;2023-08-31T09:13:56;99434.52;;;15.90;80.22
67987;BME280;54767;53.800;15.956;2023-08-31T09:16:28;99442.94;;;15.86;80.24
67987;BME280;54767;53.800;15.956;2023-08-31T09:18:58;99442.67;;;15.84;80.26
67987;BME280;54767;53.800;15.956;2023-08-31T09:21:36;99445.90;;;15.82;80.43
67987;BME280;54767;53.800;15.956;2023-08-31T09:24:06;99451.75;;;15.81;80.35
67987;BME280;54767;53.800;15.956;2023-08-31T09:26:45;99456.67;;;15.76;80.26
67987;BME280;54767;53.800;15.956;2023-08-31T09:29:21;99457.61;;;15.74;80.41
67987;BME280;54767;53.800;15.956;2023-08-31T09:31:51;99459.16;;;15.70;80.48
67987;BME280;54767;53.800;15.956;2023-08-31T09:34:19;99458.31;;;15.69;80.64
67987;BME280;54767;53.800;15.956;2023-08-31T09:36:49;99459.86;;;15.70;80.77
67987;BME280;54767;53.800;15.956;2023-08-31T09:39:35;99463.70;;;15.72;80.75
67987;BME280;54767;53.800;15.956;2023-08-31T09:42:04;99461.00;;;15.73;80.86
67987;BME280;54767;53.800;15.956;2023-08-31T09:44:40;99465.59;;;15.73;80.79
67987;BME280;54767;53.800;15.956;2023-08-31T09:47:09;99464.45;;;15.71;80.55
67987;BME280;54767;53.800;15.956;2023-08-31T09:49:38;99469.77;;;15.69;80.70
67987;BME280;54767;53.800;15.956;2023-08-31T09:52:12;99473.44;;;15.71;80.86
67987;BME280;54767;53.800;15.956;2023-08-31T09:55:11;99473.08;;;15.71;80.76
67987;BME280;54767;53.800;15.956;2023-08-31T09:58:09;99476.77;;;15.71;80.91
67987;BME280;54767;53.800;15.956;2023-08-31T10:00:50;99474.76;;;15.73;80.87
67987;BME280;54767;53.800;15.956;2023-08-31T10:03:21;99478.64;;;15.73;80.76
67987;BME280;54767;53.800;15.956;2023-08-31T10:05:50;99482.48;;;15.75;80.97
67987;BME280;54767;53.800;15.956;2023-08-31T10:08:18;99481.71;;;15.76;80.85
67987;BME280;54767;53.800;15.956;2023-08-31T10:10:47;99485.65;;;15.80;80.88
67987;BME280;54767;53.800;15.956;2023-08-31T10:16:55;99487.73;;;15.87;80.94
67987;BME280;54767;53.800;15.956;2023-08-31T10:22:21;99478.84;;;15.94;80.81
67987;BME280;54767;53.800;15.956;2023-08-31T10:27:27;99477.82;;;16.05;80.70
67987;BME280;54767;53.800;15.956;2023-08-31T10:29:56;99475.54;;;16.10;80.65
67987;BME280;54767;53.800;15.956;2023-08-31T10:32:24;99469.41;;;16.13;80.79
67987;BME280;54767;53.800;15.956;2023-08-31T10:35:07;99472.21;;;16.15;80.50
67987;BME280;54767;53.800;15.956;2023-08-31T10:37:40;99473.88;;;16.17;80.46
67987;BME280;54767;53.800;15.956;2023-08-31T10:40:10;99472.16;;;16.21;80.30
67987;BME280;54767;53.800;15.956;2023-08-31T10:42:47;99466.98;;;16.18;80.20
67987;BME280;54767;53.800;15.956;2023-08-31T10:45:20;99467.54;;;16.22;80.45
67987;BME280;54767;53.800;15.956;2023-08-31T10:47:49;99463.63;;;16.23;80.41
67987;BME280;54767;53.800;15.956;2023-08-31T10:50:21;99461.75;;;16.26;80.45
67987;BME280;54767;53.800;15.956;2023-08-31T10:52:51;99460.41;;;16.30;80.19
67987;BME280;54767;53.800;15.956;2023-08-31T10:55:20;99460.59;;;16.34;80.55
67987;BME280;54767;53.800;15.956;2023-08-31T10:57:52;99470.55;;;16.43;80.64
67987;BME280;54767;53.800;15.956;2023-08-31T11:00:53;99459.97;;;16.42;80.17
67987;BME280;54767;53.800;15.956;2023-08-31T11:06:49;99476.23;;;16.52;80.06
67987;BME280;54767;53.800;15.956;2023-08-31T11:09:30;99477.60;;;16.54;79.91
67987;BME280;54767;53.800;15.956;2023-08-31T11:11:59;99476.31;;;16.55;79.83
67987;BME280;54767;53.800;15.956;2023-08-31T11:14:27;99476.55;;;16.58;79.83
67987;BME280;54767;53.800;15.956;2023-08-31T11:20:04;99474.66;;;16.62;79.32
67987;BME280;54767;53.800;15.956;2023-08-31T11:22:45;99469.95;;;16.65;79.40
67987;BME280;54767;53.800;15.956;2023-08-31T11:25:32;99462.04;;;16.68;79.27
67987;BME280;54767;53.800;15.956;2023-08-31T11:28:02;99460.97;;;16.69;78.95
67987;BME280;54767;53.800;15.956;2023-08-31T12:55:23;99509.73;;;17.05;76.49
67987;BME280;54767;53.800;15.956;2023-08-31T12:57:57;99508.36;;;17.04;76.29
67987;BME280;54767;53.800;15.956;2023-08-31T13:03:38;99517.67;;;17.05;76.44
67987;BME280;54767;53.800;15.956;2023-08-31T13:06:10;99514.58;;;17.03;76.30
67987;BME280;54767;53.800;15.956;2023-08-31T13:08:44;99511.42;;;17.02;76.07
67987;BME280;54767;53.800;15.956;2023-08-31T13:11:13;99517.92;;;17.03;75.82
67987;BME280;54767;53.800;15.956;2023-08-31T13:13:44;99525.08;;;17.01;75.95
67987;BME280;54767;53.800;15.956;2023-08-31T13:52:10;99548.35;;;16.07;75.21
67987;BME280;54767;53.800;15.956;2023-08-31T14:11:38;99543.97;;;15.83;75.75
67987;BME280;54767;53.800;15.956;2023-08-31T14:14:07;99553.06;;;15.86;75.73
67987;BME280;54767;53.800;15.956;2023-08-31T14:16:47;99549.63;;;15.83;75.96
67987;BME280;54767;53.800;15.956;2023-08-31T14:19:20;99549.54;;;15.79;75.87
67987;BME280;54767;53.800;15.956;2023-08-31T14:22:31;99545.11;;;15.75;76.06
67987;BME280;54767;53.800;15.956;2023-08-31T14:25:01;99537.22;;;15.73;76.06
67987;BME280;54767;53.800;15.956;2023-08-31T14:34:06;99536.40;;;15.71;76.42
67987;BME280;54767;53.800;15.956;2023-08-31T14:43:22;99540.43;;;15.78;76.68
67987;BME280;54767;53.800;15.956;2023-08-31T14:45:56;99543.17;;;15.80;76.62
67987;BME280;54767;53.800;15.956;2023-08-31T19:00:57;99604.27;;;14.67;77.58
67987;BME280;54767;53.800;15.956;2023-08-31T20:42:53;99661.06;;;13.98;78.07
67987;BME280;54767;53.800;15.956;2023-08-31T21:57:22;99678.98;;;13.28;78.09
67987;BME280;54767;53.800;15.956;2023-08-31T22:01:00;99676.91;;;13.24;77.97
67987;BME280;54767;53.800;15.956;2023-08-31T22:37:58;99693.98;;;13.62;76.94
67987;BME280;54767;53.800;15.956;2023-08-31T22:40:27;99701.60;;;13.69;76.65
67987;BME280;54767;53.800;15.956;2023-08-31T22:42:55;99699.49;;;13.60;76.69
67987;BME280;54767;53.800;15.956;2023-08-31T22:45:24;99697.19;;;13.51;76.83
67987;BME280;54767;53.800;15.956;2023-08-31T22:47:53;99698.93;;;13.42;77.01
67987;BME280;54767;53.800;15.956;2023-08-31T22:50:22;99698.20;;;13.34;77.02
67987;BME280;54767;53.800;15.956;2023-08-31T22:52:50;99701.46;;;13.29;77.13
67987;BME280;54767;53.800;15.956;2023-08-31T22:55:19;99697.85;;;13.23;77.15
67987;BME280;54767;53.800;15.956;2023-08-31T22:57:47;99695.83;;;13.18;77.38
67987;BME280;54767;53.800;15.956;2023-08-31T23:00:15;99699.76;;;13.14;77.51
67987;BME280;54767;53.800;15.956;2023-08-31T23:02:44;99697.05;;;13.08;77.50
67987;BME280;54767;53.800;15.956;2023-08-31T23:05:13;99693.77;;;13.04;77.59
67987;BME280;54767;53.800;15.956;2023-08-31T23:07:41;99692.44;;;13.00;77.73
67987;BME280;54767;53.800;15.956;2023-08-31T23:10:10;99694.59;;;12.97;77.71
67987;BME280;54767;53.800;15.956;2023-08-31T23:13:08;99692.73;;;12.92;77.83
67987;BME280;54767;53.800;15.956;2023-08-31T23:15:37;99691.56;;;12.88;77.97
67987;BME280;54767;53.800;15.956;2023-08-31T23:18:09;99692.16;;;12.85;77.91
67987;BME280;54767;53.800;15.956;2023-08-31T23:20:37;99693.25;;;12.83;78.05
67987;BME280;54767;53.800;15.956;2023-08-31T23:23:06;99692.38;;;12.81;78.07
67987;BME280;54767;53.800;15.956;2023-08-31T23:25:34;99694.35;;;12.80;78.11
67987;BME280;54767;53.800;15.956;2023-08-31T23:28:02;99693.33;;;12.78;78.16
67987;BME280;54767;53.800;15.956;2023-08-31T23:30:31;99693.38;;;12.75;78.21
67987;BME280;54767;53.800;15.956;2023-08-31T23:32:59;99700.77;;;12.73;78.45
67987;BME280;54767;53.800;15.956;2023-08-31T23:35:28;99694.80;;;12.73;78.43
67987;BME280;54767;53.800;15.956;2023-08-31T23:37:56;99694.97;;;12.74;78.54
67987;BME280;54767;53.800;15.956;2023-08-31T23:40:24;99693.20;;;12.74;78.51
67987;BME280;54767;53.800;15.956;2023-08-31T23:42:52;99693.74;;;12.73;78.45
67987;BME280;54767;53.800;15.956;2023-08-31T23:45:20;99693.57;;;12.73;78.66
67987;BME280;54767;53.800;15.956;2023-08-31T23:47:48;99691.66;;;12.71;78.70
67987;BME280;54767;53.800;15.956;2023-08-31T23:50:17;99690.80;;;12.70;78.59
67987;BME280;54767;53.800;15.956;2023-08-31T23:52:45;99685.55;;;12.69;78.61